Terminal Aerodrome Forecast
Issued by NWS

Home | Current Version | Previous Version | Text Only | Print | Product List | Glossary On
Versions: 1 2 3 4 5 6 7 8 9 10 11 12 13
255
FTUS46 KSEW 081134
TAFPAE
TAF
KPAE 081134Z 0812/0912 02006KT P6SM SCT200
     FM081800 04008KT P6SM FEW130 OVC200
     FM082300 07009KT P6SM FEW070 OVC130
     FM090500 11011KT P6SM -SN SCT020 OVC045
     FM090700 13012KT 2SM -SN SCT003 OVC020
      TEMPO 0907/0911 3/4SM -SN OVC003=

USA.gov is the U.S. government's official web portal to all federal, state and local government web resources and services.